Metar Cercanos

 

LEPA - Palma De Mallorc, Spain
Distance from station: ONO 38km
Actualización: Tue, 04-Oct-2022 11:00am CEST
Few Clouds
Few Clouds
 Viento del ENE
Viento: ENE 15 km/h
Temperatura: 25°C
Rocío: 18°C
Humedad: 65%
Barómetro: 1020 hPa
Clouds: Few Clouds
Visibility: 10 km
Cloud details: Few Clouds 914 m
2022/10/04 09:00 LEPA 040900Z 06008KT 030V100 9999 FEW030 25/18 Q1020 NOSIG
LEMH - Mahon/Menorca Is, Spain
Distance from station: ENE 105km
Actualización: Tue, 04-Oct-2022 11:00am CEST
Parcialmente nuboso
Parcialmente nuboso
 Viento del NNO
Viento: NNO 11 km/h
Temperatura: 23°C
Rocío: 17°C
Humedad: 69%
Barómetro: 1020 hPa
Clouds: Parcialmente nuboso
Visibility: 10 km
Cloud details: Parcialmente nuboso 701 m
2022/10/04 09:00 LEMH 040900Z 34006KT 300V020 9999 SCT023 23/17 Q1020
 
LEIB - Ibiza/Es Codola, Spain
Distance from station: OSO 165km
Actualización: Tue, 04-Oct-2022 11:00am CEST
Few Clouds
Few Clouds
 Viento del NE
Viento: NE 9 km/h
Temperatura: 22°C
Rocío: 20°C
Humedad: 88%
Barómetro: 1020 hPa
Clouds: Few Clouds
Visibility: 10 km
Cloud details: Few Clouds 1067 m
Few Clouds 1372 m
2022/10/04 09:00 LEIB 040900Z 05005KT 320V080 9999 FEW035 FEW045TCU 22/20 Q1020 NOSIG
LEBL - Barcelona Airpor, Spain
Distance from station: NNO 225km
Actualización: Tue, 04-Oct-2022 11:00am CEST
Few Clouds
Few Clouds
 Viento del N
Viento: N 6 km/h
Temperatura: 22°C
Rocío: 16°C
Humedad: 69%
Barómetro: 1021 hPa
Clouds: Few Clouds
Visibility: 10 km
Cloud details: Few Clouds 518 m
2022/10/04 09:00 LEBL 040900Z 35003KT 9999 FEW017 22/16 Q1021 NOSIG
 
LEVC - Valencia (civ/Mi, Spain
Distance from station: NO 188km
Actualización: Tue, 04-Oct-2022 11:00am CEST
Few Clouds
Few Clouds
 Viento del NO
Viento: NO 6 km/h
Temperatura: 22°C
Rocío: 17°C
Humedad: 73%
Barómetro: 1021 hPa
Clouds: Few Clouds
Visibility: 10 km
Cloud details: Few Clouds 549 m
2022/10/04 09:00 LEVC 040900Z 31003KT 260V340 9999 FEW018 22/17 Q1021 NOSIG
LEGE - Gerona/Costa Bra, Spain
Distance from station: N 276km
Actualización: Tue, 04-Oct-2022 11:00am CEST
Despejado
Despejado
 Viento del varies
Viento: varies 4 km/h
Temperatura: 22°C
Rocío: 15°C
Humedad: 65%
Barómetro: 1021 hPa
Resumen: Despejado
Visibility: greater than 10 km
2022/10/04 09:00 LEGE 040900Z VRB02KT CAVOK 22/15 Q1021
 
LEAL - Alicante/El Alte, Spain
Distance from station: OSO 344km
Actualización: Tue, 04-Oct-2022 11:00am CEST
Parcialmente nuboso
Parcialmente nuboso
 Viento del varies
Viento: varies 4 km/h
Temperatura: 22°C
Rocío: 19°C
Humedad: 83%
Barómetro: 1021 hPa
Clouds: Parcialmente nuboso
Visibility: 10 km
Cloud details: Few Clouds 366 m
Parcialmente nuboso 732 m
2022/10/04 09:00 LEAL 040900Z VRB02KT 9999 FEW012 SCT024 22/19 Q1021 NOSIG
LEAM - Almeria Airport, Spain
Distance from station: SSO 56km
Actualización: Tue, 04-Oct-2022 11:00am CEST
Few Clouds
Few Clouds
 Viento del SSO
Viento: SSO 7 km/h
Temperatura: 21°C
Rocío: 20°C
Humedad: 94%
Barómetro: 1019 hPa
Clouds: Few Clouds
Visibility: 10 km
Cloud details: Few Clouds 91 m
2022/10/04 09:00 LEAM 040900Z 21004KT 180V250 9999 FEW003 21/20 Q1019
 
LEZG - Zaragoza (mil/Ci, Spain
Distance from station: NO 431km
Actualización: Tue, 04-Oct-2022 11:00am CEST
Despejado
Despejado
 Viento del NO
Viento: NO 7 km/h
Temperatura: 19°C
Rocío: 11°C
Humedad: 60%
Barómetro: 1022 hPa
Resumen: Despejado
Visibility: greater than 10 km
2022/10/04 09:00 LEZG 040900Z 32004KT 280V350 CAVOK 19/11 Q1022
LEMD - Madrid/Barajas, Spain
Distance from station: ONO 234km
Actualización: Tue, 04-Oct-2022 11:00am CEST
Despejado
Despejado
 Viento del varies
Viento: varies 4 km/h
Temperatura: 18°C
Rocío: 6°C
Humedad: 46%
Barómetro: 1023 hPa
Resumen: Despejado
Visibility: greater than 10 km
2022/10/04 09:00 LEMD 040900Z VRB02KT CAVOK 18/06 Q1023 NOSIG
 
LEGR - Granada Airport, Spain
Distance from station: OSO 62km
Actualización: Tue, 04-Oct-2022 11:00am CEST
Few Clouds
Few Clouds
 Viento del varies
Viento: varies 2 km/h
Temperatura: 20°C
Rocío: 9°C
Humedad: 49%
Barómetro: 1023 hPa
Clouds: Few Clouds
Visibility: 10 km
Cloud details: Few Clouds 2134 m
2022/10/04 09:00 LEGR 040900Z VRB01KT 9999 FEW070 20/09 Q1023
LEMG - Malaga (civ/Mil), Spain
Distance from station: OSO 227km
Actualización: Tue, 04-Oct-2022 11:00am CEST
Few Clouds
Few Clouds
 Viento del NO
Viento: NO 6 km/h
Temperatura: 21°C
Rocío: 14°C
Humedad: 64%
Barómetro: 1020 hPa
Clouds: Few Clouds
Visibility: 10 km
Cloud details: Few Clouds 91 m
2022/10/04 09:00 LEMG 040900Z 31003KT 260V010 9999 FEW003 21/14 Q1020 NOSIG
 
LEZL - Sevilla (civ/Mil, Spain
Distance from station: S 318km
Actualización: Tue, 04-Oct-2022 11:00am CEST
Despejado
Despejado
 Viento del varies
Viento: varies 4 km/h
Temperatura: 22°C
Rocío: 16°C
Humedad: 69%
Barómetro: 1020 hPa
Resumen: Despejado
Visibility: greater than 10 km
2022/10/04 09:00 LEZL 040900Z VRB02KT CAVOK 22/16 Q1020 NOSIG
LEVT - Vitoria, Spain
Distance from station: NO 226km
Actualización: Tue, 04-Oct-2022 11:00am CEST
Mist, Muy nuboso
Mist, Muy nuboso
 Viento del calm
Viento: Calma
Temperatura: 11°C
Rocío: 11°C
Humedad: 100%
Barómetro: 1023 hPa
Resumen: Mist
Clouds: Muy nuboso
Visibility: 1 km
Cloud details: Muy nuboso 30 m
2022/10/04 09:00 LEVT 040900Z 00000KT 1200 R04/1600U R22/1200U BR BKN001 11/11 Q1023
 
LEBB - Bilbao/Sondica, Spain
Distance from station: NNO 235km
Actualización: Tue, 04-Oct-2022 11:00am CEST
Despejado
Despejado
 Viento del E
Viento: E 6 km/h
Temperatura: 19°C
Rocío: 14°C
Humedad: 73%
Barómetro: 1022 hPa
Resumen: Despejado
Visibility: greater than 10 km
2022/10/04 09:00 LEBB 040900Z 08003KT 030V130 CAVOK 19/14 Q1022 NOSIG
LESO - San Sebastian/Fu, Spain
Distance from station: N 231km
Actualización: Tue, 04-Oct-2022 11:00am CEST
Parcialmente nuboso
Parcialmente nuboso
 Viento del varies
Viento: varies 2 km/h
Temperatura: 19°C
Rocío: 16°C
Humedad: 83%
Barómetro: 1022 hPa
Clouds: Parcialmente nuboso
Visibility: 10 km
Cloud details: Parcialmente nuboso 152 m
2022/10/04 09:00 LESO 040900Z VRB01KT 9999 SCT005 19/16 Q1022
 
LEVD - Valladolid(Mil/C, Spain
Distance from station: ONO 239km
Actualización: Tue, 04-Oct-2022 11:00am CEST
Few Clouds
Few Clouds
 Viento del varies
Viento: varies 4 km/h
Temperatura: 18°C
Rocío: 6°C
Humedad: 46%
Barómetro: 1024 hPa
Clouds: Few Clouds
Visibility: 10 km
Cloud details: Few Clouds 1494 m
2022/10/04 09:00 LEVD 040900Z VRB02KT 9999 FEW049 18/06 Q1024
LESA - Salamanca (civ/M, Spain
Distance from station: ONO 349km
Actualización: Tue, 04-Oct-2022 11:00am CEST
Despejado
Despejado
 Viento del varies
Viento: varies 4 km/h
Temperatura: 16°C
Rocío: 8°C
Humedad: 59%
Barómetro: 1024 hPa
Resumen: Despejado
Visibility: greater than 10 km
2022/10/04 09:00 LESA 040900Z VRB02KT CAVOK 16/08 Q1024
 
LEXJ - Santander/Paraya, Spain
Distance from station: NNO 247km
Actualización: Tue, 04-Oct-2022 11:00am CEST
Few Clouds
Few Clouds
 Viento del O
Viento: O 6 km/h
Temperatura: 17°C
Rocío: 15°C
Humedad: 88%
Barómetro: 1022 hPa
Clouds: Few Clouds
Visibility: 10 km
Cloud details: Few Clouds 91 m
2022/10/04 09:00 LEXJ 040900Z 28003KT 9999 FEW003 17/15 Q1022
LEAS - Asturias/Aviles, Spain
Distance from station: NO 214km
Actualización: Tue, 04-Oct-2022 11:03am CEST
Muy nuboso
Muy nuboso
 Viento del NO
Viento: NO 9 km/h
Temperatura: 16°C
Rocío: 15°C
Humedad: 94%
Barómetro: 1022 hPa
Clouds: Muy nuboso
Visibility: 8 km
Cloud details: Muy nuboso 91 m
2022/10/04 09:03 LEAS 040903Z 31005KT 280V360 8000 BKN003 16/15 Q1022 NOSIG
 
LECO - La Coruna/Alvedr, Spain
Distance from station: ONO 222km
Actualización: Tue, 04-Oct-2022 11:00am CEST
Muy nuboso
Muy nuboso
 Viento del SSE
Viento: SSE 9 km/h
Temperatura: 15°C
Rocío: 14°C
Humedad: 94%
Barómetro: 1023 hPa
Clouds: Muy nuboso
Visibility: 10 km
Cloud details: Muy nuboso 518 m
2022/10/04 09:00 LECO 040900Z 16005KT 9999 BKN017 15/14 Q1023 NOSIG
LEVX - Vigo/Peinador, Spain
Distance from station: O 214km
Actualización: Tue, 04-Oct-2022 11:00am CEST
Patches of fog, Few clouds
Patches of fog, Few clouds
 Viento del SO
Viento: SO 11 km/h
Temperatura: 15°C
Rocío: 13°C
Humedad: 88%
Barómetro: 1022 hPa
Resumen: Patches of Fog
Clouds: Few Clouds
Visibility: 10 km
Cloud details: Few Clouds 61 m
2022/10/04 09:00 LEVX 040900Z 22006KT 150V240 9999 BCFG FEW002 15/13 Q1022 NOSIG